Portada
METAR-TAF:

METAR-TAF

Aeropuertos :

Aeropuerto de Montpellier-Méditerranée

Montpellier, Francia

latitud: 43-35N, longitud: 003-58E, altitud: 5 m

Observación

El informe se hizo hace 16 minutos, a las 01:30 UTC
Viento 16 kt del noroeste
Temperatura 24°C
Humedad 57%
Presión 1014 hPa
Visibilidad 10 km o más
sin nubes por debajo de 1500 m y sin presencia de cumulonimbus.

METAR: LFMT 170130Z AUTO 31016KT CAVOK 24/15 Q1014 NOSIG

Hora: 03:46 (01:46 UTC)

Pronóstico

El informe se hizo hace 5 horas y 46 minutos, a las 20:00 UTC
Pronóstico válido del 16 a las 21 UTC al 17 a las 21 UTC
Viento 15 kt del noroeste
Visibilidad 10 km o más
sin nubes por debajo de 1500 m y sin presencia de cumulonimbus.
Evolucionando progresivamente
del 17 a las 10 UTC al 17 a las 12 UTC
Viento 5 kt del noroeste

TAF: LFMT 162000Z 1621/1721 32015KT CAVOK BECMG 1710/1712 32005KT

Observaciones y pronósticos meteorológicos de más de 4000 aeropuertos (mensajes METAR y TAF).

Los puntos amarillos y rojos representan las estaciones disponibles.

Ponga el ratón en el punto deseado para ver el nombre de la estación.

Haga clic para ver las observaciones y los pronósticos meteorológicos.

Para cambiar el mapa : haga clic en los botones verdes con una cruz de color negro para hacer un zoom, en el botón verde con un guión para alejar o en las flechas verdes para mapas adyacentes.


METAR-TAF: